< < Back
Terminal Aerodrome Forecast


Current Version              Previous Versions:   1  2  3  4  5  6  7  8  9  

Terminal Aerodrome Forecast

869
FTUS42 KGSP 292300
TAFGSP
TAF
KGSP 292339Z 3000/3024 02005KT P6SM BKN070
     FM301100 01005KT P6SM FEW045
     FM302000 00000KT P6SM SCT250=



Latest METAR

625
SAUS70 KWBC 302300 RRG
MTRGSP
METAR KGSP 302253Z 03004KT 10SM CLR 27/14 A3004 RMK AO2 SLP160
T02670144


USA.gov is the U.S. government's official web portal to all federal, state and local government web resources and services.